sensor_id;sensor_type;location;lat;lon;timestamp;pressure;altitude;pressure_sealevel;temperature;humidity
62655;BME280;48717;55.556;37.816;2022-12-29T00:02:13;99171.47;;;-1.49;98.92
62655;BME280;48717;55.556;37.816;2022-12-29T00:04:41;99174.06;;;-1.49;98.28
62655;BME280;48717;55.556;37.816;2022-12-29T00:07:08;99171.44;;;-1.51;98.47
62655;BME280;48717;55.556;37.816;2022-12-29T00:09:35;99152.94;;;-1.62;97.55
62655;BME280;48717;55.556;37.816;2022-12-29T00:12:04;99142.47;;;-1.65;96.64
62655;BME280;48717;55.556;37.816;2022-12-29T00:14:31;99182.91;;;-1.44;96.19
62655;BME280;48717;55.556;37.816;2022-12-29T00:17:17;99149.19;;;-1.70;96.42
62655;BME280;48717;55.556;37.816;2022-12-29T00:19:44;99125.25;;;-1.87;96.20
62655;BME280;48717;55.556;37.816;2022-12-29T00:22:30;99186.78;;;-1.55;95.58
62655;BME280;48717;55.556;37.816;2022-12-29T00:25:15;99159.28;;;-1.76;95.13
62655;BME280;48717;55.556;37.816;2022-12-29T00:28:01;99181.13;;;-1.68;93.43
62655;BME280;48717;55.556;37.816;2022-12-29T00:30:47;99133.56;;;-1.96;92.55
62655;BME280;48717;55.556;37.816;2022-12-29T00:33:33;99190.75;;;-1.64;93.03
62655;BME280;48717;55.556;37.816;2022-12-29T00:36:26;99192.53;;;-1.63;93.72
62655;BME280;48717;55.556;37.816;2022-12-29T00:38:59;99187.25;;;-1.66;93.18
62655;BME280;48717;55.556;37.816;2022-12-29T00:41:48;99185.81;;;-1.80;92.77
62655;BME280;48717;55.556;37.816;2022-12-29T00:44:33;99174.78;;;-1.99;92.67
62655;BME280;48717;55.556;37.816;2022-12-29T00:47:00;99191.47;;;-1.91;93.28
62655;BME280;48717;55.556;37.816;2022-12-29T00:49:32;99141.25;;;-2.20;93.51
62655;BME280;48717;55.556;37.816;2022-12-29T00:52:04;99198.53;;;-1.87;93.58
62655;BME280;48717;55.556;37.816;2022-12-29T00:54:34;99200.16;;;-1.89;93.27
62655;BME280;48717;55.556;37.816;2022-12-29T00:57:02;99204.25;;;-1.94;93.42
62655;BME280;48717;55.556;37.816;2022-12-29T00:59:30;99163.59;;;-2.21;94.00
62655;BME280;48717;55.556;37.816;2022-12-29T01:01:58;99207.88;;;-2.12;93.66
62655;BME280;48717;55.556;37.816;2022-12-29T01:04:27;99199.69;;;-2.23;92.67
62655;BME280;48717;55.556;37.816;2022-12-29T01:06:54;99201.41;;;-2.23;92.97
62655;BME280;48717;55.556;37.816;2022-12-29T01:09:21;99206.94;;;-2.14;93.84
62655;BME280;48717;55.556;37.816;2022-12-29T01:12:08;99206.66;;;-2.21;92.40
62655;BME280;48717;55.556;37.816;2022-12-29T01:14:36;99171.88;;;-2.51;93.49
62655;BME280;48717;55.556;37.816;2022-12-29T01:17:04;99203.63;;;-2.32;92.45
62655;BME280;48717;55.556;37.816;2022-12-29T01:19:32;99218.84;;;-2.39;92.03
62655;BME280;48717;55.556;37.816;2022-12-29T01:21:59;99201.59;;;-2.40;92.01
62655;BME280;48717;55.556;37.816;2022-12-29T01:24:27;99197.19;;;-2.42;91.87
62655;BME280;48717;55.556;37.816;2022-12-29T01:26:54;99226.19;;;-2.28;91.99
62655;BME280;48717;55.556;37.816;2022-12-29T01:29:22;99206.75;;;-2.40;92.90
62655;BME280;48717;55.556;37.816;2022-12-29T01:31:49;99222.63;;;-2.30;93.18
62655;BME280;48717;55.556;37.816;2022-12-29T01:34:17;99191.50;;;-2.55;92.73
62655;BME280;48717;55.556;37.816;2022-12-29T01:36:45;99146.16;;;-2.91;92.88
62655;BME280;48717;55.556;37.816;2022-12-29T01:39:12;99119.13;;;-3.00;92.38
62655;BME280;48717;55.556;37.816;2022-12-29T01:41:40;99224.16;;;-2.36;92.85
62655;BME280;48717;55.556;37.816;2022-12-29T01:47:11;99211.34;;;-2.54;92.26
62655;BME280;48717;55.556;37.816;2022-12-29T01:49:38;99089.63;;;-3.27;91.63
62655;BME280;48717;55.556;37.816;2022-12-29T01:52:07;99234.25;;;-2.42;92.65
62655;BME280;48717;55.556;37.816;2022-12-29T01:54:39;99203.84;;;-2.69;92.64
62655;BME280;48717;55.556;37.816;2022-12-29T01:57:13;99235.63;;;-2.50;93.04
62655;BME280;48717;55.556;37.816;2022-12-29T01:59:51;99179.00;;;-2.86;93.32
62655;BME280;48717;55.556;37.816;2022-12-29T02:02:20;99221.09;;;-2.68;92.47
62655;BME280;48717;55.556;37.816;2022-12-29T02:04:47;99194.78;;;-2.80;92.68
62655;BME280;48717;55.556;37.816;2022-12-29T02:07:19;99205.97;;;-2.80;93.07
62655;BME280;48717;55.556;37.816;2022-12-29T02:09:48;99235.34;;;-2.56;92.52
62655;BME280;48717;55.556;37.816;2022-12-29T02:12:18;99186.06;;;-2.82;92.28
62655;BME280;48717;55.556;37.816;2022-12-29T02:14:51;99208.50;;;-2.81;92.15
62655;BME280;48717;55.556;37.816;2022-12-29T02:26:20;99217.19;;;-2.79;93.09
62655;BME280;48717;55.556;37.816;2022-12-29T02:34:03;99250.66;;;-2.61;92.67
62655;BME280;48717;55.556;37.816;2022-12-29T02:45:08;99249.22;;;-2.74;93.29
62655;BME280;48717;55.556;37.816;2022-12-29T02:48:09;99248.41;;;-2.73;93.12
62655;BME280;48717;55.556;37.816;2022-12-29T02:50:39;99252.41;;;-2.80;92.52
62655;BME280;48717;55.556;37.816;2022-12-29T02:53:11;99187.75;;;-3.24;92.42
62655;BME280;48717;55.556;37.816;2022-12-29T02:55:48;99264.59;;;-2.77;92.71
62655;BME280;48717;55.556;37.816;2022-12-29T02:58:21;99261.88;;;-2.80;93.01
62655;BME280;48717;55.556;37.816;2022-12-29T03:01:03;99250.25;;;-2.90;93.21
62655;BME280;48717;55.556;37.816;2022-12-29T03:11:58;99234.72;;;-3.11;93.90
62655;BME280;48717;55.556;37.816;2022-12-29T03:14:55;99239.88;;;-3.11;93.99
62655;BME280;48717;55.556;37.816;2022-12-29T03:17:50;99266.06;;;-3.02;94.47
62655;BME280;48717;55.556;37.816;2022-12-29T03:20:32;99257.25;;;-3.07;94.86
62655;BME280;48717;55.556;37.816;2022-12-29T03:23:05;99267.69;;;-3.04;94.52
62655;BME280;48717;55.556;37.816;2022-12-29T03:25:44;99278.16;;;-3.01;94.83
62655;BME280;48717;55.556;37.816;2022-12-29T03:28:22;99279.16;;;-2.97;94.42
62655;BME280;48717;55.556;37.816;2022-12-29T03:30:50;99283.47;;;-2.98;95.00
62655;BME280;48717;55.556;37.816;2022-12-29T03:33:23;99281.69;;;-2.99;94.88
62655;BME280;48717;55.556;37.816;2022-12-29T03:35:55;99226.94;;;-3.31;95.12
62655;BME280;48717;55.556;37.816;2022-12-29T03:39:02;99279.06;;;-3.00;94.63
62655;BME280;48717;55.556;37.816;2022-12-29T03:41:33;99269.84;;;-3.13;94.43
62655;BME280;48717;55.556;37.816;2022-12-29T03:44:02;99284.06;;;-3.04;93.89
62655;BME280;48717;55.556;37.816;2022-12-29T03:46:33;99233.44;;;-3.39;94.51
62655;BME280;48717;55.556;37.816;2022-12-29T03:49:01;99303.69;;;-3.07;94.66
62655;BME280;48717;55.556;37.816;2022-12-29T03:51:29;99304.50;;;-3.08;93.73
62655;BME280;48717;55.556;37.816;2022-12-29T03:53:56;99310.59;;;-3.06;94.20
62655;BME280;48717;55.556;37.816;2022-12-29T03:56:24;99258.03;;;-3.28;94.41
62655;BME280;48717;55.556;37.816;2022-12-29T03:58:52;99312.38;;;-3.05;93.85
62655;BME280;48717;55.556;37.816;2022-12-29T04:01:28;99300.44;;;-3.03;93.79
62655;BME280;48717;55.556;37.816;2022-12-29T04:03:55;99274.50;;;-3.26;93.35
62655;BME280;48717;55.556;37.816;2022-12-29T04:06:22;99319.28;;;-3.04;93.49
62655;BME280;48717;55.556;37.816;2022-12-29T04:08:57;99307.69;;;-3.14;93.01
62655;BME280;48717;55.556;37.816;2022-12-29T04:11:24;99302.88;;;-3.06;93.51
62655;BME280;48717;55.556;37.816;2022-12-29T04:13:59;99287.38;;;-3.26;92.87
62655;BME280;48717;55.556;37.816;2022-12-29T04:16:28;99316.78;;;-3.03;92.91
62655;BME280;48717;55.556;37.816;2022-12-29T04:18:55;99283.31;;;-3.21;93.29
62655;BME280;48717;55.556;37.816;2022-12-29T04:21:22;99292.97;;;-3.17;93.68
62655;BME280;48717;55.556;37.816;2022-12-29T04:23:50;99307.69;;;-3.14;92.70
62655;BME280;48717;55.556;37.816;2022-12-29T04:26:17;99322.56;;;-3.08;92.99
62655;BME280;48717;55.556;37.816;2022-12-29T04:29:07;99286.34;;;-3.30;93.30
62655;BME280;48717;55.556;37.816;2022-12-29T04:31:43;99290.75;;;-3.27;93.39
62655;BME280;48717;55.556;37.816;2022-12-29T04:34:10;99318.44;;;-3.23;93.22
62655;BME280;48717;55.556;37.816;2022-12-29T04:36:38;99279.16;;;-3.55;93.13
62655;BME280;48717;55.556;37.816;2022-12-29T04:39:06;99320.66;;;-3.31;94.12
62655;BME280;48717;55.556;37.816;2022-12-29T04:41:35;99293.28;;;-3.47;93.29
62655;BME280;48717;55.556;37.816;2022-12-29T04:44:03;99310.34;;;-3.31;93.52
62655;BME280;48717;55.556;37.816;2022-12-29T04:46:30;99316.25;;;-3.33;93.85
62655;BME280;48717;55.556;37.816;2022-12-29T04:49:01;99333.34;;;-3.35;93.87
62655;BME280;48717;55.556;37.816;2022-12-29T04:51:54;99340.13;;;-3.37;94.07
62655;BME280;48717;55.556;37.816;2022-12-29T04:54:22;99336.56;;;-3.39;93.63
62655;BME280;48717;55.556;37.816;2022-12-29T04:56:57;99328.50;;;-3.47;94.43
62655;BME280;48717;55.556;37.816;2022-12-29T04:59:24;99342.94;;;-3.33;93.53
62655;BME280;48717;55.556;37.816;2022-12-29T05:01:55;99347.34;;;-3.30;93.66
62655;BME280;48717;55.556;37.816;2022-12-29T05:04:23;99349.19;;;-3.28;94.44
62655;BME280;48717;55.556;37.816;2022-12-29T05:06:50;99348.28;;;-3.28;93.62
62655;BME280;48717;55.556;37.816;2022-12-29T05:09:17;99293.53;;;-3.60;93.53
62655;BME280;48717;55.556;37.816;2022-12-29T05:11:44;99323.75;;;-3.38;94.50
62655;BME280;48717;55.556;37.816;2022-12-29T05:14:11;99318.91;;;-3.50;94.25
62655;BME280;48717;55.556;37.816;2022-12-29T05:16:40;99292.78;;;-3.58;93.95
62655;BME280;48717;55.556;37.816;2022-12-29T05:19:07;99341.03;;;-3.37;93.61
62655;BME280;48717;55.556;37.816;2022-12-29T05:21:35;99329.66;;;-3.41;94.30
62655;BME280;48717;55.556;37.816;2022-12-29T05:24:02;99328.72;;;-3.43;93.48
62655;BME280;48717;55.556;37.816;2022-12-29T05:26:29;99331.81;;;-3.50;93.04
62655;BME280;48717;55.556;37.816;2022-12-29T05:29:18;99347.63;;;-3.42;93.48
62655;BME280;48717;55.556;37.816;2022-12-29T05:31:45;99358.84;;;-3.42;93.48
62655;BME280;48717;55.556;37.816;2022-12-29T05:34:13;99335.44;;;-3.64;93.02
62655;BME280;48717;55.556;37.816;2022-12-29T05:36:40;99365.03;;;-3.56;93.71
62655;BME280;48717;55.556;37.816;2022-12-29T05:39:09;99359.56;;;-3.62;93.66
62655;BME280;48717;55.556;37.816;2022-12-29T05:41:37;99359.28;;;-3.69;93.65
62655;BME280;48717;55.556;37.816;2022-12-29T05:44:23;99379.25;;;-3.64;94.22
62655;BME280;48717;55.556;37.816;2022-12-29T05:47:10;99367.91;;;-3.68;93.66
62655;BME280;48717;55.556;37.816;2022-12-29T05:50:04;99332.31;;;-3.94;93.57
62655;BME280;48717;55.556;37.816;2022-12-29T05:52:57;99371.94;;;-3.73;93.66
62655;BME280;48717;55.556;37.816;2022-12-29T05:55:24;99363.16;;;-3.77;93.51
62655;BME280;48717;55.556;37.816;2022-12-29T05:57:54;99315.59;;;-4.02;93.66
62655;BME280;48717;55.556;37.816;2022-12-29T06:00:21;99371.34;;;-3.68;94.17
62655;BME280;48717;55.556;37.816;2022-12-29T06:02:49;99317.47;;;-3.99;93.48
62655;BME280;48717;55.556;37.816;2022-12-29T06:05:17;99380.06;;;-3.65;92.94
62655;BME280;48717;55.556;37.816;2022-12-29T06:07:44;99377.25;;;-3.70;93.34
62655;BME280;48717;55.556;37.816;2022-12-29T06:10:14;99385.94;;;-3.68;93.41
62655;BME280;48717;55.556;37.816;2022-12-29T06:12:52;99384.97;;;-3.70;93.62
62655;BME280;48717;55.556;37.816;2022-12-29T06:15:21;99385.06;;;-3.69;93.57
62655;BME280;48717;55.556;37.816;2022-12-29T06:17:49;99396.09;;;-3.71;93.78
62655;BME280;48717;55.556;37.816;2022-12-29T06:20:17;99374.13;;;-3.81;93.38
62655;BME280;48717;55.556;37.816;2022-12-29T06:22:44;99387.63;;;-3.69;94.08
62655;BME280;48717;55.556;37.816;2022-12-29T06:25:13;99382.56;;;-3.67;94.60
62655;BME280;48717;55.556;37.816;2022-12-29T06:27:42;99374.59;;;-3.72;93.74
62655;BME280;48717;55.556;37.816;2022-12-29T06:30:10;99385.06;;;-3.69;93.88
62655;BME280;48717;55.556;37.816;2022-12-29T06:32:38;99388.00;;;-3.61;94.57
62655;BME280;48717;55.556;37.816;2022-12-29T06:35:08;99360.31;;;-3.83;93.48
62655;BME280;48717;55.556;37.816;2022-12-29T06:37:40;99365.47;;;-3.83;93.68
62655;BME280;48717;55.556;37.816;2022-12-29T06:40:08;99358.69;;;-3.81;93.62
62655;BME280;48717;55.556;37.816;2022-12-29T06:43:04;99380.25;;;-3.79;93.47
62655;BME280;48717;55.556;37.816;2022-12-29T06:45:49;99354.00;;;-3.88;94.03
62655;BME280;48717;55.556;37.816;2022-12-29T06:48:16;99390.41;;;-3.64;93.53
62655;BME280;48717;55.556;37.816;2022-12-29T06:50:43;99386.34;;;-3.77;93.75
62655;BME280;48717;55.556;37.816;2022-12-29T06:53:10;99398.75;;;-3.70;93.86
62655;BME280;48717;55.556;37.816;2022-12-29T06:55:37;99371.34;;;-3.86;93.68
62655;BME280;48717;55.556;37.816;2022-12-29T06:58:04;99394.09;;;-3.77;93.99
62655;BME280;48717;55.556;37.816;2022-12-29T07:00:31;99393.94;;;-3.80;93.94
62655;BME280;48717;55.556;37.816;2022-12-29T07:02:58;99379.00;;;-3.87;93.89
62655;BME280;48717;55.556;37.816;2022-12-29T07:05:26;99388.00;;;-3.79;94.31
62655;BME280;48717;55.556;37.816;2022-12-29T07:07:54;99387.19;;;-3.78;93.54
62655;BME280;48717;55.556;37.816;2022-12-29T07:10:22;99391.03;;;-3.70;93.26
62655;BME280;48717;55.556;37.816;2022-12-29T07:12:49;99367.50;;;-3.76;92.67
62655;BME280;48717;55.556;37.816;2022-12-29T07:15:17;99369.59;;;-3.69;92.91
62655;BME280;48717;55.556;37.816;2022-12-29T07:17:44;99369.75;;;-3.65;92.30
62655;BME280;48717;55.556;37.816;2022-12-29T07:20:11;99369.13;;;-3.60;92.27
62655;BME280;48717;55.556;37.816;2022-12-29T07:22:38;99366.19;;;-3.68;91.66
62655;BME280;48717;55.556;37.816;2022-12-29T07:25:05;99383.88;;;-3.57;91.33
62655;BME280;48717;55.556;37.816;2022-12-29T07:27:32;99397.88;;;-3.52;91.77
62655;BME280;48717;55.556;37.816;2022-12-29T07:29:59;99395.81;;;-3.59;91.60
62655;BME280;48717;55.556;37.816;2022-12-29T07:32:27;99398.53;;;-3.56;91.35
62655;BME280;48717;55.556;37.816;2022-12-29T07:34:54;99394.25;;;-3.56;91.25
62655;BME280;48717;55.556;37.816;2022-12-29T07:37:21;99404.81;;;-3.51;91.38
62655;BME280;48717;55.556;37.816;2022-12-29T07:39:48;99404.97;;;-3.48;90.83
62655;BME280;48717;55.556;37.816;2022-12-29T07:42:15;99393.16;;;-3.43;90.68
62655;BME280;48717;55.556;37.816;2022-12-29T07:44:49;99403.94;;;-3.33;90.52
62655;BME280;48717;55.556;37.816;2022-12-29T07:47:35;99408.41;;;-3.29;90.25
62655;BME280;48717;55.556;37.816;2022-12-29T07:50:02;99411.72;;;-3.13;89.85
62655;BME280;48717;55.556;37.816;2022-12-29T07:52:29;99409.69;;;-3.21;88.89
62655;BME280;48717;55.556;37.816;2022-12-29T07:54:56;99373.06;;;-3.50;89.36
62655;BME280;48717;55.556;37.816;2022-12-29T07:57:23;99415.56;;;-3.42;89.71
62655;BME280;48717;55.556;37.816;2022-12-29T07:59:58;99414.28;;;-3.50;90.08
62655;BME280;48717;55.556;37.816;2022-12-29T08:02:25;99402.44;;;-3.64;89.77
62655;BME280;48717;55.556;37.816;2022-12-29T08:04:56;99423.78;;;-3.49;90.62
62655;BME280;48717;55.556;37.816;2022-12-29T08:07:23;99421.16;;;-3.32;91.26
62655;BME280;48717;55.556;37.816;2022-12-29T08:09:50;99424.56;;;-3.33;89.57
62655;BME280;48717;55.556;37.816;2022-12-29T08:12:17;99405.25;;;-3.42;90.35
62655;BME280;48717;55.556;37.816;2022-12-29T08:14:44;99399.59;;;-3.34;89.53
62655;BME280;48717;55.556;37.816;2022-12-29T08:17:12;99407.00;;;-3.41;89.35
62655;BME280;48717;55.556;37.816;2022-12-29T08:19:39;99431.47;;;-3.32;89.37
62655;BME280;48717;55.556;37.816;2022-12-29T08:22:06;99424.31;;;-3.38;89.33
62655;BME280;48717;55.556;37.816;2022-12-29T08:24:33;99410.63;;;-3.55;89.99
62655;BME280;48717;55.556;37.816;2022-12-29T08:27:00;99423.94;;;-3.46;90.61
62655;BME280;48717;55.556;37.816;2022-12-29T08:29:41;99429.91;;;-3.47;90.40
62655;BME280;48717;55.556;37.816;2022-12-29T08:32:08;99415.47;;;-3.61;91.22
62655;BME280;48717;55.556;37.816;2022-12-29T08:34:35;99437.94;;;-3.41;91.16
62655;BME280;48717;55.556;37.816;2022-12-29T08:37:03;99434.53;;;-3.39;90.86
62655;BME280;48717;55.556;37.816;2022-12-29T08:39:30;99426.59;;;-3.44;90.60
62655;BME280;48717;55.556;37.816;2022-12-29T08:41:57;99443.69;;;-3.28;90.43
62655;BME280;48717;55.556;37.816;2022-12-29T08:44:24;99414.75;;;-3.41;90.45
62655;BME280;48717;55.556;37.816;2022-12-29T08:46:51;99439.56;;;-3.24;90.54
62655;BME280;48717;55.556;37.816;2022-12-29T08:49:19;99432.50;;;-3.29;90.81
62655;BME280;48717;55.556;37.816;2022-12-29T08:51:46;99416.34;;;-3.24;90.52
62655;BME280;48717;55.556;37.816;2022-12-29T08:54:13;99432.06;;;-3.20;90.45
62655;BME280;48717;55.556;37.816;2022-12-29T08:56:40;99409.38;;;-3.27;90.26
62655;BME280;48717;55.556;37.816;2022-12-29T08:59:07;99410.09;;;-3.30;89.97
62655;BME280;48717;55.556;37.816;2022-12-29T09:01:36;99410.19;;;-3.28;89.76
62655;BME280;48717;55.556;37.816;2022-12-29T09:04:07;99410.53;;;-3.20;89.73
62655;BME280;48717;55.556;37.816;2022-12-29T09:06:44;99425.75;;;-3.08;89.70
62655;BME280;48717;55.556;37.816;2022-12-29T09:09:12;99405.09;;;-3.08;89.47
62655;BME280;48717;55.556;37.816;2022-12-29T09:11:40;99436.50;;;-2.99;89.66
62655;BME280;48717;55.556;37.816;2022-12-29T09:14:07;99420.84;;;-3.02;89.48
62655;BME280;48717;55.556;37.816;2022-12-29T09:16:35;99422.69;;;-2.99;89.61
62655;BME280;48717;55.556;37.816;2022-12-29T09:19:03;99426.72;;;-2.86;89.22
62655;BME280;48717;55.556;37.816;2022-12-29T09:21:31;99406.81;;;-2.71;88.37
62655;BME280;48717;55.556;37.816;2022-12-29T09:23:58;99426.13;;;-2.23;87.38
62655;BME280;48717;55.556;37.816;2022-12-29T09:26:25;99400.59;;;-1.95;84.06
62655;BME280;48717;55.556;37.816;2022-12-29T09:28:52;99398.84;;;-1.33;83.68
62655;BME280;48717;55.556;37.816;2022-12-29T09:31:19;99411.38;;;-0.76;78.84
62655;BME280;48717;55.556;37.816;2022-12-29T09:33:46;99402.91;;;-0.48;77.72
62655;BME280;48717;55.556;37.816;2022-12-29T09:36:14;99375.56;;;-0.64;77.64
62655;BME280;48717;55.556;37.816;2022-12-29T09:38:41;99375.47;;;-0.18;77.83
62655;BME280;48717;55.556;37.816;2022-12-29T09:41:29;99357.66;;;0.17;76.73
62655;BME280;48717;55.556;37.816;2022-12-29T09:44:20;99405.78;;;0.35;74.73
62655;BME280;48717;55.556;37.816;2022-12-29T09:46:51;99375.66;;;-0.12;75.62
62655;BME280;48717;55.556;37.816;2022-12-29T09:52:14;99418.53;;;-0.46;77.55
62655;BME280;48717;55.556;37.816;2022-12-29T09:54:52;99410.25;;;-0.83;78.81
62655;BME280;48717;55.556;37.816;2022-12-29T09:57:35;99420.41;;;-1.11;80.36
62655;BME280;48717;55.556;37.816;2022-12-29T10:00:17;99398.66;;;-1.59;81.25
62655;BME280;48717;55.556;37.816;2022-12-29T10:02:51;99403.31;;;-1.71;82.92
62655;BME280;48717;55.556;37.816;2022-12-29T10:10:37;99424.31;;;-1.85;85.03
62655;BME280;48717;55.556;37.816;2022-12-29T10:16:13;99403.00;;;-2.00;85.78
62655;BME280;48717;55.556;37.816;2022-12-29T10:18:54;99421.50;;;-2.11;86.37
62655;BME280;48717;55.556;37.816;2022-12-29T10:24:31;99417.88;;;-2.14;85.77
62655;BME280;48717;55.556;37.816;2022-12-29T10:26:59;99400.22;;;-2.44;86.16
62655;BME280;48717;55.556;37.816;2022-12-29T10:29:37;99427.34;;;-2.34;86.62
62655;BME280;48717;55.556;37.816;2022-12-29T10:32:32;99394.66;;;-2.54;86.79
62655;BME280;48717;55.556;37.816;2022-12-29T10:35:11;99428.97;;;-2.37;87.23
62655;BME280;48717;55.556;37.816;2022-12-29T10:40:44;99387.91;;;-2.70;87.39
62655;BME280;48717;55.556;37.816;2022-12-29T10:43:24;99437.25;;;-2.44;87.80
62655;BME280;48717;55.556;37.816;2022-12-29T10:45:58;99433.59;;;-2.49;87.83
62655;BME280;48717;55.556;37.816;2022-12-29T10:48:34;99421.22;;;-2.56;87.85
62655;BME280;48717;55.556;37.816;2022-12-29T10:51:05;99402.56;;;-2.69;88.17
62655;BME280;48717;55.556;37.816;2022-12-29T10:53:45;99436.91;;;-2.52;88.37
62655;BME280;48717;55.556;37.816;2022-12-29T10:56:21;99442.69;;;-2.57;88.47
62655;BME280;48717;55.556;37.816;2022-12-29T10:58:54;99444.31;;;-2.59;89.12
62655;BME280;48717;55.556;37.816;2022-12-29T11:01:22;99442.00;;;-2.53;88.99
62655;BME280;48717;55.556;37.816;2022-12-29T11:04:08;99432.13;;;-2.62;89.22
62655;BME280;48717;55.556;37.816;2022-12-29T11:06:43;99423.88;;;-2.55;89.38
62655;BME280;48717;55.556;37.816;2022-12-29T11:09:15;99425.84;;;-2.49;89.83
62655;BME280;48717;55.556;37.816;2022-12-29T11:11:42;99409.28;;;-2.54;89.20
62655;BME280;48717;55.556;37.816;2022-12-29T11:14:29;99421.03;;;-2.41;89.34
62655;BME280;48717;55.556;37.816;2022-12-29T11:16:59;99417.91;;;-2.34;89.22
62655;BME280;48717;55.556;37.816;2022-12-29T11:19:28;99414.00;;;-2.24;88.32
62655;BME280;48717;55.556;37.816;2022-12-29T11:24:46;99404.16;;;-2.33;88.75
62655;BME280;48717;55.556;37.816;2022-12-29T11:27:22;99387.38;;;-2.43;88.57
62655;BME280;48717;55.556;37.816;2022-12-29T11:29:51;99406.31;;;-2.23;88.53
62655;BME280;48717;55.556;37.816;2022-12-29T11:32:20;99410.88;;;-2.17;88.59
62655;BME280;48717;55.556;37.816;2022-12-29T11:34:54;99408.31;;;-2.17;88.14
62655;BME280;48717;55.556;37.816;2022-12-29T11:37:39;99372.28;;;-2.33;87.68
62655;BME280;48717;55.556;37.816;2022-12-29T11:40:17;99416.84;;;-1.98;88.59
62655;BME280;48717;55.556;37.816;2022-12-29T11:42:53;99403.81;;;-2.01;87.91
62655;BME280;48717;55.556;37.816;2022-12-29T11:45:24;99414.75;;;-2.07;87.53
62655;BME280;48717;55.556;37.816;2022-12-29T11:47:55;99423.53;;;-2.03;87.46
62655;BME280;48717;55.556;37.816;2022-12-29T11:50:33;99391.47;;;-2.28;87.38
62655;BME280;48717;55.556;37.816;2022-12-29T11:53:28;99422.44;;;-2.08;88.17
62655;BME280;48717;55.556;37.816;2022-12-29T11:56:45;99425.16;;;-2.05;87.62
62655;BME280;48717;55.556;37.816;2022-12-29T12:01:58;99429.50;;;-2.04;88.34
62655;BME280;48717;55.556;37.816;2022-12-29T12:04:29;99428.44;;;-2.10;88.34
62655;BME280;48717;55.556;37.816;2022-12-29T12:07:02;99431.84;;;-2.11;88.77
62655;BME280;48717;55.556;37.816;2022-12-29T12:09:36;99414.84;;;-2.25;88.07
62655;BME280;48717;55.556;37.816;2022-12-29T12:12:05;99447.59;;;-2.04;88.63
62655;BME280;48717;55.556;37.816;2022-12-29T12:14:53;99378.00;;;-2.41;88.13
62655;BME280;48717;55.556;37.816;2022-12-29T12:17:43;99429.13;;;-2.14;87.86
62655;BME280;48717;55.556;37.816;2022-12-29T12:27:15;99442.56;;;-2.01;88.79
62655;BME280;48717;55.556;37.816;2022-12-29T12:29:56;99433.19;;;-1.99;88.96
62655;BME280;48717;55.556;37.816;2022-12-29T12:35:15;99433.25;;;-1.98;88.44
62655;BME280;48717;55.556;37.816;2022-12-29T12:40:58;99430.72;;;-1.96;88.10
62655;BME280;48717;55.556;37.816;2022-12-29T12:52:18;99432.78;;;-2.08;89.14
62655;BME280;48717;55.556;37.816;2022-12-29T13:00:14;99348.38;;;-2.69;88.64
62655;BME280;48717;55.556;37.816;2022-12-29T13:08:22;99434.56;;;-2.27;89.92
62655;BME280;48717;55.556;37.816;2022-12-29T13:16:47;99382.28;;;-2.61;89.71
62655;BME280;48717;55.556;37.816;2022-12-29T13:19:32;99444.47;;;-2.37;89.64
62655;BME280;48717;55.556;37.816;2022-12-29T13:27:20;99433.59;;;-2.49;90.33
62655;BME280;48717;55.556;37.816;2022-12-29T13:30:04;99392.06;;;-2.73;90.43
62655;BME280;48717;55.556;37.816;2022-12-29T13:38:05;99430.78;;;-2.54;91.17
62655;BME280;48717;55.556;37.816;2022-12-29T13:40:40;99431.94;;;-2.47;91.81
62655;BME280;48717;55.556;37.816;2022-12-29T13:43:09;99412.38;;;-2.62;91.22
62655;BME280;48717;55.556;37.816;2022-12-29T13:45:36;99440.50;;;-2.48;91.09
62655;BME280;48717;55.556;37.816;2022-12-29T13:48:17;99380.56;;;-2.80;91.16
62655;BME280;48717;55.556;37.816;2022-12-29T13:50:58;99379.41;;;-2.87;90.72
62655;BME280;48717;55.556;37.816;2022-12-29T13:53:37;99436.84;;;-2.53;91.55
62655;BME280;48717;55.556;37.816;2022-12-29T13:56:42;99341.41;;;-3.09;91.64
62655;BME280;48717;55.556;37.816;2022-12-29T13:59:31;99437.44;;;-2.59;92.35
62655;BME280;48717;55.556;37.816;2022-12-29T14:02:17;99339.97;;;-3.22;92.16
62655;BME280;48717;55.556;37.816;2022-12-29T14:05:04;99419.63;;;-2.72;92.10
62655;BME280;48717;55.556;37.816;2022-12-29T14:07:38;99419.63;;;-2.72;92.38
62655;BME280;48717;55.556;37.816;2022-12-29T14:10:38;99436.59;;;-2.59;92.54
62655;BME280;48717;55.556;37.816;2022-12-29T14:13:22;99406.53;;;-2.77;92.47
62655;BME280;48717;55.556;37.816;2022-12-29T14:15:57;99424.19;;;-2.67;92.35
62655;BME280;48717;55.556;37.816;2022-12-29T14:18:31;99441.00;;;-2.57;92.43
62655;BME280;48717;55.556;37.816;2022-12-29T14:23:45;99424.19;;;-2.67;92.53
62655;BME280;48717;55.556;37.816;2022-12-29T14:30:00;99406.06;;;-2.86;92.71
62655;BME280;48717;55.556;37.816;2022-12-29T14:34:52;99439.69;;;-2.67;93.12
62655;BME280;48717;55.556;37.816;2022-12-29T14:42:40;99443.28;;;-2.63;92.98
62655;BME280;48717;55.556;37.816;2022-12-29T14:47:45;99446.84;;;-2.61;93.00
62655;BME280;48717;55.556;37.816;2022-12-29T14:50:18;99407.25;;;-2.80;93.12
62655;BME280;48717;55.556;37.816;2022-12-29T14:55:55;99425.69;;;-2.72;92.98
62655;BME280;48717;55.556;37.816;2022-12-29T14:58:32;99437.91;;;-2.68;93.57
62655;BME280;48717;55.556;37.816;2022-12-29T15:01:18;99436.13;;;-2.69;93.79
62655;BME280;48717;55.556;37.816;2022-12-29T15:03:48;99439.53;;;-2.70;94.76
62655;BME280;48717;55.556;37.816;2022-12-29T15:06:28;99437.63;;;-2.74;94.16
62655;BME280;48717;55.556;37.816;2022-12-29T15:09:12;99297.13;;;-3.57;94.12
62655;BME280;48717;55.556;37.816;2022-12-29T15:11:54;99442.94;;;-2.71;94.58
62655;BME280;48717;55.556;37.816;2022-12-29T15:14:57;99423.03;;;-2.73;94.84
62655;BME280;48717;55.556;37.816;2022-12-29T15:17:30;99421.88;;;-2.80;95.44
62655;BME280;48717;55.556;37.816;2022-12-29T15:20:00;99408.28;;;-2.76;94.86
62655;BME280;48717;55.556;37.816;2022-12-29T15:22:30;99414.19;;;-2.79;94.90
62655;BME280;48717;55.556;37.816;2022-12-29T15:24:57;99408.41;;;-2.73;94.50
62655;BME280;48717;55.556;37.816;2022-12-29T15:27:25;99413.94;;;-2.65;94.88